KBTV/BTV METAR and TAF weather

Enter ICAO airport designator
Station Type Date Time Source
KBTV METAR 2021/10/24 22:54 UTC NOAA

KBTV 242254Z 18004KT 10SM SCT075 07/02 A3013 RMK AO2 SLP208 T00670022 $


Station Type Date Time Source
KBTV Decoded METAR 2021/10/24 22:54 UTC NOAA

BURLINGTON INTERNATIONAL, VT, United States (KBTV) 44-28N 73-09W 105M
Oct 24, 2021 - 06:54 PM EDT / 2021.10.24 2254 UTC
Wind: from the S (180 degrees) at 5 MPH (4 KT):0
Visibility: 10 mile(s):0
Sky conditions: partly cloudy
Temperature: 44.1 F (6.7 C)
Dew Point: 36.0 F (2.2 C)
Relative Humidity: 72%
Pressure (altimeter): 30.13 in. Hg (1020 hPa)
ob: KBTV 242254Z 18004KT 10SM SCT075 07/02 A3013 RMK AO2 SLP208 T00670022
cycle: 23

Station Type Date Time Source
KBTV TAF 2021/10/24 18:24 UTC NOAA

TAF KBTV 241722Z 2418/2518 VRB03KT P6SM FEW100
FM250000 VRB04KT P6SM SCT120
FM250800 VRB04KT 6SM -RA BR OVC050
FM251200 07005KT 3SM -RA BR OVC019

Example: see airport list